createdAt,value
2018-02-06T00:00:50.957Z,1017.7
2018-02-06T00:01:53.371Z,1017.7
2018-02-06T00:02:55.795Z,1017.7
2018-02-06T00:03:58.209Z,1017.6
2018-02-06T00:05:00.637Z,1017.6
2018-02-06T00:06:03.054Z,1017.7
2018-02-06T00:07:05.477Z,1017.7
2018-02-06T00:08:08.503Z,1017.7
2018-02-06T00:09:10.919Z,1017.7
2018-02-06T00:10:13.325Z,1017.6
2018-02-06T00:11:15.761Z,1017.7
2018-02-06T00:12:18.180Z,1017.6
2018-02-06T00:13:20.586Z,1017.6
2018-02-06T00:14:23.007Z,1017.6
2018-02-06T00:15:25.434Z,1017.6
2018-02-06T00:16:27.849Z,1017.6
2018-02-06T00:17:30.286Z,1017.6
2018-02-06T00:18:32.687Z,1017.6
2018-02-06T00:19:35.103Z,1017.6
2018-02-06T00:20:37.540Z,1017.6
2018-02-06T00:21:39.958Z,1017.5
2018-02-06T00:22:42.383Z,1017.6
2018-02-06T00:23:44.806Z,1017.5
2018-02-06T00:24:47.226Z,1017.5
2018-02-06T00:25:49.648Z,1017.5
2018-02-06T00:26:52.360Z,1017.5
2018-02-06T00:27:54.772Z,1017.5
2018-02-06T00:28:57.191Z,1017.5
2018-02-06T00:29:59.613Z,1017.5
2018-02-06T00:31:02.031Z,1017.5
2018-02-06T00:32:04.734Z,1017.4
2018-02-06T00:33:07.451Z,1017.5
2018-02-06T00:34:10.169Z,1017.4
2018-02-06T00:35:12.584Z,1017.5
2018-02-06T00:36:15.277Z,1017.5
2018-02-06T00:37:17.699Z,1017.4
2018-02-06T00:38:20.120Z,1017.4
2018-02-06T00:39:22.537Z,1017.4
2018-02-06T00:40:24.956Z,1017.4
2018-02-06T00:41:27.385Z,1017.4
2018-02-06T00:42:29.787Z,1017.4
2018-02-06T00:43:32.205Z,1017.3
2018-02-06T00:44:34.630Z,1017.3
2018-02-06T00:45:37.049Z,1017.3
2018-02-06T00:46:39.478Z,1017.3
2018-02-06T00:47:42.780Z,1017.3
2018-02-06T00:48:45.483Z,1017.3
2018-02-06T00:49:47.914Z,1017.3
2018-02-06T00:50:50.635Z,1017.3
2018-02-06T00:51:53.059Z,1017.3
2018-02-06T00:52:55.485Z,1017.2
2018-02-06T00:53:57.886Z,1017.2
2018-02-06T00:55:00.308Z,1017.2
2018-02-06T00:56:02.720Z,1017.2
2018-02-06T00:57:05.418Z,1017.1
2018-02-06T00:58:07.835Z,1017.1
2018-02-06T00:59:10.262Z,1017.1
2018-02-06T01:00:12.676Z,1017.1
2018-02-06T01:01:15.111Z,1017.1
2018-02-06T01:02:17.537Z,1017.1
2018-02-06T01:03:20.228Z,1017
2018-02-06T01:04:22.652Z,1017
2018-02-06T01:05:25.068Z,1017
2018-02-06T01:06:27.496Z,1017
2018-02-06T01:07:29.914Z,1016.9
2018-02-06T01:08:32.320Z,1017
2018-02-06T01:09:34.744Z,1016.9
2018-02-06T01:10:37.171Z,1016.9
2018-02-06T01:11:39.592Z,1016.9
2018-02-06T01:12:42.007Z,1016.8
2018-02-06T01:13:44.432Z,1016.8
2018-02-06T01:14:46.855Z,1016.8
2018-02-06T01:15:49.291Z,1016.8
2018-02-06T01:16:51.708Z,1016.8
2018-02-06T01:17:54.115Z,1016.8
2018-02-06T01:18:56.543Z,1016.7
2018-02-06T01:19:58.958Z,1016.7
2018-02-06T01:21:01.382Z,1016.8
2018-02-06T01:22:03.820Z,1016.8
2018-02-06T01:23:06.222Z,1016.8
2018-02-06T01:24:08.648Z,1016.7
2018-02-06T01:25:11.054Z,1016.7
2018-02-06T01:26:14.054Z,1016.7
2018-02-06T01:27:16.466Z,1016.7
2018-02-06T01:28:18.887Z,1016.7
2018-02-06T01:29:21.309Z,1016.7
2018-02-06T01:30:23.728Z,1016.7
2018-02-06T01:31:26.149Z,1016.7
2018-02-06T01:32:28.581Z,1016.6
2018-02-06T01:33:30.995Z,1016.6
2018-02-06T01:34:33.416Z,1016.7
2018-02-06T01:35:36.122Z,1016.7
2018-02-06T01:36:38.822Z,1016.7
2018-02-06T01:37:41.245Z,1016.6
2018-02-06T01:38:43.657Z,1016.6
2018-02-06T01:39:46.065Z,1016.7
2018-02-06T01:40:48.484Z,1016.6
2018-02-06T01:41:50.896Z,1016.6
2018-02-06T01:42:53.315Z,1016.5
2018-02-06T01:43:56.026Z,1016.6
2018-02-06T01:44:58.453Z,1016.5
2018-02-06T01:46:00.871Z,1016.5
2018-02-06T01:47:03.292Z,1016.6
2018-02-06T01:48:05.714Z,1016.6
2018-02-06T01:49:08.129Z,1016.5
2018-02-06T01:50:10.544Z,1016.5
2018-02-06T01:51:12.980Z,1016.5
2018-02-06T01:52:15.977Z,1016.5
2018-02-06T01:53:18.403Z,1016.5
2018-02-06T01:54:20.821Z,1016.5
2018-02-06T01:55:23.236Z,1016.5
2018-02-06T01:56:25.663Z,1016.5
2018-02-06T01:57:28.089Z,1016.5
2018-02-06T01:58:30.795Z,1016.5
2018-02-06T01:59:33.496Z,1016.5
2018-02-06T02:00:35.922Z,1016.4
2018-02-06T02:01:38.343Z,1016.4
2018-02-06T02:02:40.760Z,1016.4
2018-02-06T02:03:43.185Z,1016.4
2018-02-06T02:04:45.887Z,1016.4
2018-02-06T02:05:48.598Z,1016.4
2018-02-06T02:06:51.015Z,1016.4
2018-02-06T02:07:53.424Z,1016.4
2018-02-06T02:08:55.835Z,1016.4
2018-02-06T02:09:58.552Z,1016.3
2018-02-06T02:11:00.972Z,1016.3
2018-02-06T02:12:03.676Z,1016.3
2018-02-06T02:13:06.097Z,1016.3
2018-02-06T02:14:08.513Z,1016.3
2018-02-06T02:15:10.945Z,1016.2
2018-02-06T02:16:13.372Z,1016.2
2018-02-06T02:17:15.774Z,1016.2
2018-02-06T02:18:18.202Z,1016.2
2018-02-06T02:19:20.616Z,1016.2
2018-02-06T02:20:23.024Z,1016.1
2018-02-06T02:21:25.438Z,1016.2
2018-02-06T02:22:27.873Z,1016.1
2018-02-06T02:23:30.576Z,1016.2
2018-02-06T02:24:32.991Z,1016.2
2018-02-06T02:25:35.999Z,1016.1
2018-02-06T02:26:38.420Z,1016.2
2018-02-06T02:27:40.845Z,1016.2
2018-02-06T02:28:43.268Z,1016.2
2018-02-06T02:29:45.673Z,1016.1
2018-02-06T02:30:48.100Z,1016.1
2018-02-06T02:31:50.515Z,1016.1
2018-02-06T02:32:52.924Z,1016.1
2018-02-06T02:33:55.352Z,1016.1
2018-02-06T02:34:57.771Z,1016.1
2018-02-06T02:36:00.184Z,1016.1
2018-02-06T02:37:02.603Z,1016.1
2018-02-06T02:38:05.013Z,1016.1
2018-02-06T02:39:07.427Z,1016.1
2018-02-06T02:40:09.850Z,1016
2018-02-06T02:41:12.257Z,1016
2018-02-06T04:38:48.658Z,1014.7
2018-02-06T04:39:51.076Z,1014.7
2018-02-06T04:40:53.491Z,1014.7
2018-02-06T04:41:55.907Z,1014.7
2018-02-06T04:42:58.328Z,1014.7
2018-02-06T04:44:00.751Z,1014.7
2018-02-06T04:45:03.164Z,1014.7
2018-02-06T04:46:05.579Z,1014.7
2018-02-06T04:47:08.002Z,1014.7
2018-02-06T04:48:10.416Z,1014.7
2018-02-06T04:49:12.833Z,1014.7
2018-02-06T04:50:15.248Z,1014.7
2018-02-06T04:51:17.653Z,1014.7
2018-02-06T04:52:20.074Z,1014.7
2018-02-06T04:53:22.492Z,1014.7
2018-02-06T04:54:24.897Z,1014.7
2018-02-06T04:55:27.318Z,1014.7
2018-02-06T04:56:29.727Z,1014.7
2018-02-06T04:57:32.140Z,1014.7
2018-02-06T04:58:34.568Z,1014.7
2018-02-06T04:59:36.978Z,1014.6
2018-02-06T05:00:39.394Z,1014.6
2018-02-06T05:01:41.819Z,1014.6
2018-02-06T05:02:44.243Z,1014.6
2018-02-06T05:03:46.642Z,1014.6
2018-02-06T05:04:49.358Z,1014.7
2018-02-06T05:05:51.778Z,1014.6
2018-02-06T05:06:54.471Z,1014.6
2018-02-06T05:07:56.880Z,1014.7
2018-02-06T05:08:59.588Z,1014.7
2018-02-06T05:10:02.004Z,1014.7
2018-02-06T05:11:04.735Z,1014.7
2018-02-06T05:12:07.159Z,1014.7
2018-02-06T05:13:09.572Z,1014.7
2018-02-06T05:14:12.279Z,1014.7
2018-02-06T05:15:14.699Z,1014.6
2018-02-06T05:16:17.393Z,1014.7
2018-02-06T05:17:19.806Z,1014.6
2018-02-06T05:18:22.216Z,1014.6
2018-02-06T05:19:24.626Z,1014.6
2018-02-06T05:20:27.060Z,1014.5
2018-02-06T05:21:29.474Z,1014.5
2018-02-06T05:22:31.892Z,1014.5
2018-02-06T05:23:34.309Z,1014.5
2018-02-06T05:24:36.730Z,1014.5
2018-02-06T05:25:39.151Z,1014.5
2018-02-06T05:26:41.912Z,1014.5
2018-02-06T05:27:44.317Z,1014.5
2018-02-06T05:28:46.729Z,1014.5
2018-02-06T05:29:49.154Z,1014.5
2018-02-06T05:30:51.563Z,1014.5
2018-02-06T05:31:53.983Z,1014.4
2018-02-06T05:32:56.388Z,1014.5
2018-02-06T05:33:59.083Z,1014.4
2018-02-06T05:35:01.792Z,1014.4
2018-02-06T05:36:04.205Z,1014.4
2018-02-06T05:37:06.616Z,1014.3
2018-02-06T05:38:09.028Z,1014.4
2018-02-06T05:39:11.448Z,1014.3
2018-02-06T05:40:13.868Z,1014.3
2018-02-06T05:41:16.293Z,1014.3
2018-02-06T05:42:18.697Z,1014.3
2018-02-06T05:43:21.682Z,1014.3
2018-02-06T05:44:24.393Z,1014.3
2018-02-06T05:45:26.817Z,1014.3
2018-02-06T05:46:29.529Z,1014.3
2018-02-06T05:47:31.954Z,1014.3
2018-02-06T05:48:34.365Z,1014.3
2018-02-06T05:49:37.064Z,1014.2
2018-02-06T05:50:39.758Z,1014.3
2018-02-06T05:51:42.184Z,1014.3
2018-02-06T05:52:44.594Z,1014.3
2018-02-06T05:53:47.053Z,1014.3
2018-02-06T05:54:49.423Z,1014.3
2018-02-06T05:55:52.120Z,1014.3
2018-02-06T05:56:54.544Z,1014.3
2018-02-06T05:57:57.241Z,1014.3
2018-02-06T05:58:59.653Z,1014.3
2018-02-06T06:00:02.080Z,1014.3
2018-02-06T06:01:04.489Z,1014.2
2018-02-06T06:02:07.204Z,1014.2
2018-02-06T06:03:09.618Z,1014.2
2018-02-06T06:04:12.031Z,1014.2
2018-02-06T06:05:14.444Z,1014.2
2018-02-06T06:06:16.870Z,1014.2
2018-02-06T06:07:19.271Z,1014.2
2018-02-06T06:08:21.706Z,1014.2
2018-02-06T06:09:24.122Z,1014.2
2018-02-06T06:10:26.873Z,1014.2
2018-02-06T06:11:29.294Z,1014.2
2018-02-06T06:12:31.711Z,1014.1
2018-02-06T06:13:34.119Z,1014.2
2018-02-06T06:14:36.537Z,1014.2
2018-02-06T06:15:38.955Z,1014.2
2018-02-06T06:16:41.376Z,1014.2
2018-02-06T06:17:43.773Z,1014.1
2018-02-06T06:18:46.200Z,1014.1
2018-02-06T06:19:48.615Z,1014
2018-02-06T06:20:51.035Z,1014.1
2018-02-06T06:21:53.454Z,1014.1
2018-02-06T06:22:55.867Z,1014.1
2018-02-06T06:23:58.275Z,1014.1
2018-02-06T06:25:00.984Z,1014.1
2018-02-06T06:26:03.390Z,1014.1
2018-02-06T06:27:05.807Z,1014
2018-02-06T06:28:08.228Z,1014
2018-02-06T06:29:10.653Z,1014
2018-02-06T06:30:13.358Z,1014
2018-02-06T06:31:15.775Z,1014
2018-02-06T06:32:18.182Z,1014
2018-02-06T06:33:20.604Z,1013.9
2018-02-06T06:34:23.012Z,1014
2018-02-06T06:35:25.427Z,1014
2018-02-06T06:36:27.843Z,1014
2018-02-06T06:37:30.257Z,1014
2018-02-06T06:38:32.670Z,1014
2018-02-06T06:39:35.093Z,1014
2018-02-06T06:40:37.503Z,1014
2018-02-06T06:41:39.916Z,1014
2018-02-06T06:42:42.330Z,1013.9
2018-02-06T06:43:44.752Z,1013.9
2018-02-06T06:44:47.171Z,1013.9
2018-02-06T06:45:49.589Z,1013.8
2018-02-06T06:46:52.006Z,1013.8
2018-02-06T06:47:54.424Z,1013.8
2018-02-06T06:48:56.853Z,1013.8
2018-02-06T06:49:59.267Z,1013.9
2018-02-06T06:51:01.995Z,1013.9
2018-02-06T06:52:04.404Z,1013.8
2018-02-06T06:53:06.831Z,1013.9
2018-02-06T06:54:09.531Z,1013.8
2018-02-06T06:55:11.949Z,1013.8
2018-02-06T06:56:14.364Z,1013.8
2018-02-06T06:57:16.779Z,1013.8
2018-02-06T06:58:19.200Z,1013.8
2018-02-06T06:59:21.616Z,1013.8
2018-02-06T07:00:24.028Z,1013.8
2018-02-06T07:01:26.446Z,1013.8
2018-02-06T07:02:28.865Z,1013.8
2018-02-06T07:03:31.281Z,1013.8
2018-02-06T07:04:33.702Z,1013.8
2018-02-06T07:05:36.118Z,1013.8
2018-02-06T07:06:38.825Z,1013.7
2018-02-06T07:07:41.252Z,1013.7
2018-02-06T07:08:43.665Z,1013.7
2018-02-06T07:09:46.090Z,1013.7
2018-02-06T07:10:48.514Z,1013.7
2018-02-06T07:11:50.921Z,1013.7
2018-02-06T07:12:53.343Z,1013.7
2018-02-06T07:13:55.765Z,1013.6
2018-02-06T07:14:58.184Z,1013.6
2018-02-06T07:16:00.644Z,1013.6
2018-02-06T07:17:03.027Z,1013.7
2018-02-06T07:18:05.438Z,1013.7
2018-02-06T07:19:07.848Z,1013.6
2018-02-06T07:20:10.271Z,1013.6
2018-02-06T07:21:13.248Z,1013.7
2018-02-06T07:22:15.667Z,1013.6
2018-02-06T07:23:18.083Z,1013.7
2018-02-06T07:24:20.786Z,1013.6
2018-02-06T07:25:23.200Z,1013.6
2018-02-06T07:26:25.914Z,1013.6
2018-02-06T07:27:28.327Z,1013.7
2018-02-06T07:28:31.043Z,1013.6
2018-02-06T07:29:33.461Z,1013.6
2018-02-06T07:30:36.169Z,1013.6
2018-02-06T07:31:38.595Z,1013.7
2018-02-06T07:32:41.018Z,1013.7
2018-02-06T07:33:43.437Z,1013.6
2018-02-06T07:34:45.858Z,1013.6
2018-02-06T07:35:48.272Z,1013.7
2018-02-06T07:36:50.683Z,1013.7
2018-02-06T07:37:53.092Z,1013.6
2018-02-06T07:38:55.821Z,1013.6
2018-02-06T07:39:58.227Z,1013.6
2018-02-06T07:41:00.650Z,1013.6
2018-02-06T07:42:03.067Z,1013.6
2018-02-06T07:43:05.481Z,1013.6
2018-02-06T07:44:07.900Z,1013.6
2018-02-06T07:45:10.320Z,1013.6
2018-02-06T07:46:12.728Z,1013.6
2018-02-06T07:47:15.142Z,1013.6
2018-02-06T07:48:17.857Z,1013.5
2018-02-06T07:49:20.273Z,1013.6
2018-02-06T07:50:22.803Z,1013.6
2018-02-06T07:51:25.295Z,1013.6
2018-02-06T07:52:27.773Z,1013.5
2018-02-06T07:53:30.201Z,1013.6
2018-02-06T07:54:32.617Z,1013.5
2018-02-06T07:55:35.033Z,1013.6
2018-02-06T07:56:37.447Z,1013.6
2018-02-06T07:57:39.878Z,1013.6
2018-02-06T07:58:42.296Z,1013.5
2018-02-06T07:59:44.708Z,1013.6
2018-02-06T08:00:47.126Z,1013.6
2018-02-06T08:01:49.547Z,1013.5
2018-02-06T08:02:51.969Z,1013.6
2018-02-06T08:03:54.389Z,1013.6
2018-02-06T08:04:56.790Z,1013.6
2018-02-06T08:05:59.210Z,1013.5
2018-02-06T08:07:01.953Z,1013.5
2018-02-06T08:08:04.343Z,1013.5
2018-02-06T08:09:07.061Z,1013.5
2018-02-06T08:10:09.477Z,1013.5
2018-02-06T08:11:11.892Z,1013.5
2018-02-06T08:12:14.320Z,1013.5
2018-02-06T08:13:16.739Z,1013.5
2018-02-06T08:14:19.150Z,1013.5
2018-02-06T08:15:21.563Z,1013.5
2018-02-06T08:16:23.986Z,1013.4
2018-02-06T08:17:26.401Z,1013.5
2018-02-06T08:18:28.819Z,1013.5
2018-02-06T08:19:31.243Z,1013.4
2018-02-06T08:20:33.664Z,1013.5
2018-02-06T08:21:36.096Z,1013.5
2018-02-06T08:22:38.524Z,1013.4
2018-02-06T08:23:40.928Z,1013.5
2018-02-06T08:24:43.345Z,1013.4
2018-02-06T08:25:45.769Z,1013.4
2018-02-06T08:26:48.185Z,1013.4
2018-02-06T08:27:50.604Z,1013.4
2018-02-06T08:28:53.010Z,1013.4
2018-02-06T08:29:55.428Z,1013.4
2018-02-06T08:30:57.858Z,1013.3
2018-02-06T08:32:00.280Z,1013.4
2018-02-06T08:33:02.714Z,1013.4
2018-02-06T08:34:05.138Z,1013.4
2018-02-06T08:35:07.551Z,1013.4
2018-02-06T08:36:09.976Z,1013.4
2018-02-06T08:37:12.395Z,1013.4
2018-02-06T08:38:14.802Z,1013.4
2018-02-06T08:39:17.228Z,1013.4
2018-02-06T08:40:19.650Z,1013.4
2018-02-06T08:41:22.065Z,1013.4
2018-02-06T08:42:24.480Z,1013.3
2018-02-06T08:43:26.906Z,1013.4
2018-02-06T08:44:29.318Z,1013.4
2018-02-06T08:45:31.729Z,1013.3
2018-02-06T08:46:34.166Z,1013.3
2018-02-06T08:47:36.580Z,1013.3
2018-02-06T08:48:39.013Z,1013.3
2018-02-06T08:49:41.423Z,1013.3
2018-02-06T08:50:43.840Z,1013.3
2018-02-06T08:51:46.261Z,1013.3
2018-02-06T08:52:48.683Z,1013.3
2018-02-06T08:53:51.391Z,1013.4
2018-02-06T08:54:53.808Z,1013.3
2018-02-06T08:55:56.218Z,1013.3
2018-02-06T08:56:58.655Z,1013.3
2018-02-06T08:58:01.085Z,1013.3
2018-02-06T08:59:03.501Z,1013.3
2018-02-06T09:00:06.198Z,1013.3
2018-02-06T09:01:08.918Z,1013.3
2018-02-06T09:02:11.339Z,1013.3
2018-02-06T09:03:14.049Z,1013.3
2018-02-06T09:04:16.453Z,1013.3
2018-02-06T09:05:18.883Z,1013.3
2018-02-06T09:06:21.306Z,1013.3
2018-02-06T09:07:23.734Z,1013.3
2018-02-06T09:08:26.160Z,1013.2
2018-02-06T09:09:28.573Z,1013.2
2018-02-06T09:10:30.993Z,1013.2
2018-02-06T09:11:33.426Z,1013.2
2018-02-06T09:12:35.842Z,1013.2
2018-02-06T09:13:38.255Z,1013.2
2018-02-06T09:14:40.956Z,1013.1
2018-02-06T09:15:43.378Z,1013.2
2018-02-06T09:16:45.798Z,1013.1
2018-02-06T09:17:48.223Z,1013.1
2018-02-06T09:18:50.648Z,1013.1
2018-02-06T09:19:53.062Z,1013.1
2018-02-06T09:20:55.498Z,1013.1
2018-02-06T09:21:57.912Z,1013.1
2018-02-06T09:23:00.341Z,1013
2018-02-06T09:24:02.762Z,1013
2018-02-06T09:25:05.462Z,1013
2018-02-06T09:26:07.892Z,1012.9
2018-02-06T09:27:10.315Z,1012.9
2018-02-06T09:28:12.724Z,1012.9
2018-02-06T09:29:15.142Z,1012.9
2018-02-06T09:30:17.584Z,1012.9
2018-02-06T09:31:20.005Z,1012.9
2018-02-06T09:32:22.710Z,1012.8
2018-02-06T09:33:25.134Z,1012.9
2018-02-06T09:34:27.560Z,1012.8
2018-02-06T09:35:29.988Z,1012.9
2018-02-06T09:36:32.416Z,1012.8
2018-02-06T09:37:35.130Z,1012.8
2018-02-06T09:38:37.550Z,1012.9
2018-02-06T09:39:39.983Z,1012.8
2018-02-06T09:40:42.409Z,1012.9
2018-02-06T09:41:44.825Z,1012.9
2018-02-06T09:42:47.552Z,1012.9
2018-02-06T09:43:49.976Z,1012.8
2018-02-06T09:44:52.393Z,1012.9
2018-02-06T09:45:54.825Z,1012.8
2018-02-06T09:46:57.251Z,1012.9
2018-02-06T09:47:59.676Z,1012.9
2018-02-06T09:49:02.107Z,1012.8
2018-02-06T09:50:04.526Z,1012.8
2018-02-06T09:51:07.246Z,1012.7
2018-02-06T09:52:09.684Z,1012.7
2018-02-06T09:53:12.126Z,1012.8
2018-02-06T09:54:14.529Z,1012.7
2018-02-06T09:55:16.961Z,1012.7
2018-02-06T09:56:19.375Z,1012.7
2018-02-06T09:57:22.095Z,1012.7
2018-02-06T09:58:24.514Z,1012.7
2018-02-06T09:59:26.939Z,1012.7
2018-02-06T10:00:29.362Z,1012.7
2018-02-06T10:01:32.080Z,1012.6
2018-02-06T10:02:34.515Z,1012.7
2018-02-06T10:03:36.928Z,1012.6
2018-02-06T10:04:39.361Z,1012.6
2018-02-06T10:05:41.786Z,1012.6
2018-02-06T10:06:44.220Z,1012.6
2018-02-06T10:07:46.637Z,1012.6
2018-02-06T10:08:49.064Z,1012.6
2018-02-06T10:09:51.486Z,1012.5
2018-02-06T10:10:53.928Z,1012.5
2018-02-06T10:11:56.355Z,1012.5
2018-02-06T10:12:58.784Z,1012.5
2018-02-06T10:14:01.212Z,1012.5
2018-02-06T10:15:03.647Z,1012.4
2018-02-06T10:16:06.065Z,1012.4
2018-02-06T10:17:08.497Z,1012.4
2018-02-06T10:18:10.938Z,1012.4
2018-02-06T10:19:13.354Z,1012.4
2018-02-06T10:20:15.772Z,1012.3
2018-02-06T10:21:18.196Z,1012.3
2018-02-06T10:22:20.622Z,1012.3
2018-02-06T10:23:23.044Z,1012.3
2018-02-06T10:24:25.469Z,1012.3
2018-02-06T10:25:27.869Z,1012.3
2018-02-06T10:26:30.304Z,1012.3
2018-02-06T10:27:32.988Z,1012.3
2018-02-06T10:28:35.413Z,1012.3
2018-02-06T10:29:37.834Z,1012.3
2018-02-06T10:30:40.257Z,1012.2
2018-02-06T10:31:42.687Z,1012.2
2018-02-06T10:32:45.106Z,1012.2
2018-02-06T10:33:47.526Z,1012.2
2018-02-06T10:34:49.952Z,1012.2
2018-02-06T10:35:52.360Z,1012.2
2018-02-06T10:36:54.781Z,1012.1
2018-02-06T10:37:57.205Z,1012.1
2018-02-06T10:38:59.917Z,1012.1
2018-02-06T10:40:02.338Z,1012.2
2018-02-06T10:41:05.050Z,1012.2
2018-02-06T10:42:07.758Z,1012.1
2018-02-06T10:43:10.187Z,1012.1
2018-02-06T10:44:12.607Z,1012.1
2018-02-06T10:45:15.032Z,1012
2018-02-06T10:46:17.773Z,1012.1
2018-02-06T10:47:20.469Z,1012.1
2018-02-06T10:48:22.883Z,1012
2018-02-06T10:49:25.311Z,1012
2018-02-06T10:50:27.721Z,1012
2018-02-06T10:51:30.442Z,1011.9
2018-02-06T10:52:32.866Z,1011.9
2018-02-06T10:53:35.288Z,1011.9
2018-02-06T10:54:37.714Z,1011.9
2018-02-06T10:55:40.128Z,1011.9
2018-02-06T10:56:42.550Z,1011.8
2018-02-06T10:57:44.979Z,1011.9
2018-02-06T10:58:47.400Z,1011.9
2018-02-06T10:59:49.820Z,1011.8
2018-02-06T11:00:52.257Z,1011.9
2018-02-06T11:01:54.678Z,1011.9
2018-02-06T11:02:57.090Z,1011.9
2018-02-06T11:03:59.516Z,1011.8
2018-02-06T11:05:01.929Z,1011.8
2018-02-06T11:06:04.641Z,1011.8
2018-02-06T11:07:07.083Z,1011.8
2018-02-06T11:08:09.488Z,1011.8
2018-02-06T11:09:11.913Z,1011.8
2018-02-06T11:10:14.347Z,1011.8
2018-02-06T11:11:16.769Z,1011.7
2018-02-06T11:12:19.188Z,1011.7
2018-02-06T11:13:21.604Z,1011.7
2018-02-06T11:14:24.031Z,1011.7
2018-02-06T11:15:26.758Z,1011.7
2018-02-06T11:16:29.161Z,1011.6
2018-02-06T11:17:31.575Z,1011.6
2018-02-06T11:18:34.288Z,1011.6
2018-02-06T11:19:36.707Z,1011.6
2018-02-06T11:20:39.137Z,1011.6
2018-02-06T11:21:41.566Z,1011.6
2018-02-06T11:22:43.981Z,1011.6
2018-02-06T11:23:46.401Z,1011.6
2018-02-06T11:24:48.835Z,1011.6
2018-02-06T11:25:51.248Z,1011.5
2018-02-06T11:26:53.684Z,1011.6
2018-02-06T11:27:56.386Z,1011.5
2018-02-06T11:28:58.804Z,1011.5
2018-02-06T11:30:01.528Z,1011.5
2018-02-06T11:31:04.526Z,1011.5
2018-02-06T11:32:06.951Z,1011.5
2018-02-06T11:33:09.669Z,1011.5
2018-02-06T11:34:12.079Z,1011.5
2018-02-06T11:35:14.500Z,1011.5
2018-02-06T11:36:16.937Z,1011.5
2018-02-06T11:37:19.354Z,1011.4
2018-02-06T11:38:21.786Z,1011.4
2018-02-06T11:39:24.198Z,1011.4
2018-02-06T11:40:26.919Z,1011.4
2018-02-06T11:41:29.329Z,1011.4
2018-02-06T11:42:31.754Z,1011.4
2018-02-06T11:43:34.176Z,1011.4
2018-02-06T11:44:36.586Z,1011.4
2018-02-06T11:45:39.014Z,1011.4
2018-02-06T11:46:41.438Z,1011.4
2018-02-06T11:47:43.861Z,1011.4
2018-02-06T11:48:46.296Z,1011.4
2018-02-06T11:49:48.724Z,1011.3
2018-02-06T11:50:51.144Z,1011.3
2018-02-06T11:51:53.873Z,1011.3
2018-02-06T11:52:56.297Z,1011.3
2018-02-06T11:53:58.717Z,1011.2
2018-02-06T11:55:01.138Z,1011.2
2018-02-06T11:56:03.555Z,1011.1
2018-02-06T11:57:05.969Z,1011.1
2018-02-06T11:58:08.678Z,1011.2
2018-02-06T11:59:11.098Z,1011.1
2018-02-06T12:00:13.803Z,1011.2
2018-02-06T12:01:16.228Z,1011.1
2018-02-06T12:02:18.935Z,1011.1
2018-02-06T12:03:21.358Z,1011.1
2018-02-06T12:04:23.782Z,1011.1
2018-02-06T12:05:26.202Z,1011.1
2018-02-06T12:06:28.620Z,1011.1
2018-02-06T12:07:31.058Z,1011
2018-02-06T12:08:33.471Z,1011
2018-02-06T12:09:35.896Z,1011
2018-02-06T12:10:38.315Z,1011
2018-02-06T12:11:40.739Z,1010.9
2018-02-06T12:12:43.156Z,1010.9
2018-02-06T12:13:45.570Z,1010.9
2018-02-06T12:14:48.305Z,1010.8
2018-02-06T12:15:50.730Z,1010.9
2018-02-06T12:16:53.433Z,1010.9
2018-02-06T12:17:56.136Z,1010.9
2018-02-06T12:18:58.554Z,1010.8
2018-02-06T12:20:00.977Z,1010.8
2018-02-06T12:21:03.405Z,1010.8
2018-02-06T12:22:05.811Z,1010.8
2018-02-06T12:23:08.233Z,1010.8
2018-02-06T12:24:10.656Z,1010.8
2018-02-06T12:25:13.070Z,1010.7
2018-02-06T12:26:15.492Z,1010.6
2018-02-06T12:27:17.913Z,1010.8
2018-02-06T12:28:20.342Z,1010.7
2018-02-06T12:29:22.770Z,1010.7
2018-02-06T12:30:25.197Z,1010.6
2018-02-06T12:31:27.613Z,1010.7
2018-02-06T12:32:30.046Z,1010.7
2018-02-06T12:33:32.471Z,1010.7
2018-02-06T12:34:34.887Z,1010.6
2018-02-06T12:35:37.306Z,1010.6
2018-02-06T12:36:40.015Z,1010.6
2018-02-06T12:37:42.440Z,1010.6
2018-02-06T12:38:44.862Z,1010.6
2018-02-06T12:39:47.575Z,1010.6
2018-02-06T12:40:49.977Z,1010.6
2018-02-06T12:41:52.405Z,1010.6
2018-02-06T12:42:54.827Z,1010.5
2018-02-06T12:43:57.261Z,1010.6
2018-02-06T12:44:59.685Z,1010.6
2018-02-06T12:46:02.126Z,1010.6
2018-02-06T12:47:04.531Z,1010.5
2018-02-06T12:48:06.964Z,1010.5
2018-02-06T12:49:09.381Z,1010.5
2018-02-06T12:50:11.800Z,1010.5
2018-02-06T12:51:14.223Z,1010.5
2018-02-06T12:52:16.645Z,1010.6
2018-02-06T12:53:19.065Z,1010.5
2018-02-06T12:54:21.491Z,1010.5
2018-02-06T12:55:23.906Z,1010.5
2018-02-06T12:56:26.335Z,1010.5
2018-02-06T12:57:28.753Z,1010.4
2018-02-06T12:58:31.750Z,1010.4
2018-02-06T12:59:34.738Z,1010.4
2018-02-06T13:00:37.159Z,1010.4
2018-02-06T13:01:39.579Z,1010.4
2018-02-06T13:02:41.997Z,1010.4
2018-02-06T13:03:44.420Z,1010.3
2018-02-06T13:04:47.128Z,1010.3
2018-02-06T13:05:49.825Z,1010.3
2018-02-06T13:06:52.264Z,1010.3
2018-02-06T13:07:55.279Z,1010.3
2018-02-06T13:08:57.784Z,1010.3
2018-02-06T13:10:00.127Z,1010.3
2018-02-06T13:11:02.839Z,1010.3
2018-02-06T13:12:05.251Z,1010.3
2018-02-06T13:13:07.679Z,1010.2
2018-02-06T13:14:10.101Z,1010.2
2018-02-06T13:15:12.520Z,1010.2
2018-02-06T13:16:14.945Z,1010.2
2018-02-06T13:17:17.369Z,1010.2
2018-02-06T13:18:19.794Z,1010.2
2018-02-06T13:19:22.501Z,1010.2
2018-02-06T13:20:24.919Z,1010.2
2018-02-06T13:21:27.333Z,1010.2
2018-02-06T13:22:29.756Z,1010.1
2018-02-06T13:23:32.744Z,1010.1
2018-02-06T13:24:35.161Z,1010.2
2018-02-06T13:25:37.583Z,1010.1
2018-02-06T13:26:40.004Z,1010.1
2018-02-06T13:27:42.425Z,1010.1
2018-02-06T13:28:44.849Z,1010.1
2018-02-06T13:29:47.278Z,1010.1
2018-02-06T13:30:49.684Z,1010.1
2018-02-06T13:31:52.122Z,1010.1
2018-02-06T13:32:54.819Z,1010
2018-02-06T13:33:57.531Z,1010
2018-02-06T13:34:59.952Z,1010
2018-02-06T13:36:02.375Z,1010.1
2018-02-06T13:37:04.787Z,1010
2018-02-06T13:38:07.785Z,1010
2018-02-06T13:39:10.485Z,1010
2018-02-06T13:40:12.899Z,1010
2018-02-06T13:41:15.317Z,1010
2018-02-06T13:42:17.741Z,1010
2018-02-06T13:43:20.161Z,1010
2018-02-06T13:44:22.587Z,1010
2018-02-06T13:45:25.296Z,1009.9
2018-02-06T13:46:27.997Z,1009.9
2018-02-06T13:47:30.433Z,1009.9
2018-02-06T13:48:33.141Z,1010
2018-02-06T13:49:35.564Z,1009.9
2018-02-06T13:50:37.987Z,1009.9
2018-02-06T13:51:40.407Z,1009.9
2018-02-06T13:52:42.830Z,1009.9
2018-02-06T13:53:45.251Z,1009.9
2018-02-06T13:54:47.661Z,1009.8
2018-02-06T13:55:50.078Z,1009.8
2018-02-06T13:56:52.516Z,1009.8
2018-02-06T13:57:54.939Z,1009.7
2018-02-06T13:58:57.366Z,1009.8
2018-02-06T13:59:59.787Z,1009.8
2018-02-06T14:01:02.224Z,1009.8
2018-02-06T14:02:04.659Z,1009.8
2018-02-06T14:03:07.378Z,1009.8
2018-02-06T14:04:09.802Z,1009.8
2018-02-06T14:05:12.243Z,1009.8
2018-02-06T14:06:15.254Z,1009.8
2018-02-06T14:07:17.683Z,1009.8
2018-02-06T14:08:20.110Z,1009.8
2018-02-06T14:09:22.546Z,1009.7
2018-02-06T14:10:24.983Z,1009.7
2018-02-06T14:11:27.402Z,1009.7
2018-02-06T14:12:29.832Z,1009.8
2018-02-06T14:13:32.258Z,1009.8
2018-02-06T14:14:34.684Z,1009.7
2018-02-06T14:15:37.137Z,1009.7
2018-02-06T14:16:39.541Z,1009.7
2018-02-06T14:17:41.961Z,1009.7
2018-02-06T14:18:44.431Z,1009.7
2018-02-06T14:19:46.843Z,1009.7
2018-02-06T14:20:49.262Z,1009.7
2018-02-06T14:21:51.691Z,1009.6
2018-02-06T14:22:54.117Z,1009.6
2018-02-06T14:23:56.547Z,1009.6
2018-02-06T14:24:58.988Z,1009.5
2018-02-06T14:26:01.394Z,1009.5
2018-02-06T14:27:03.821Z,1009.5
2018-02-06T14:28:06.258Z,1009.5
2018-02-06T14:29:08.688Z,1009.5
2018-02-06T14:30:11.098Z,1009.5
2018-02-06T14:31:13.527Z,1009.5
2018-02-06T14:32:15.948Z,1009.4
2018-02-06T14:33:18.379Z,1009.5
2018-02-06T14:34:20.795Z,1009.4
2018-02-06T14:35:23.213Z,1009.5
2018-02-06T14:36:25.637Z,1009.5
2018-02-06T14:37:28.074Z,1009.5
2018-02-06T14:38:30.503Z,1009.5
2018-02-06T14:39:32.929Z,1009.5
2018-02-06T14:40:35.350Z,1009.5
2018-02-06T14:41:37.784Z,1009.5
2018-02-06T14:42:40.488Z,1009.5
2018-02-06T14:43:42.919Z,1009.5
2018-02-06T14:44:45.644Z,1009.4
2018-02-06T14:45:48.066Z,1009.5
2018-02-06T14:46:50.781Z,1009.5
2018-02-06T14:47:53.206Z,1009.5
2018-02-06T14:48:55.634Z,1009.4
2018-02-06T14:49:58.060Z,1009.5
2018-02-06T14:51:00.490Z,1009.4
2018-02-06T14:52:02.902Z,1009.4
2018-02-06T14:53:05.627Z,1009.4
2018-02-06T14:54:08.042Z,1009.4
2018-02-06T14:55:10.476Z,1009.5
2018-02-06T14:56:12.928Z,1009.4
2018-02-06T14:57:15.323Z,1009.4
2018-02-06T14:58:17.755Z,1009.4
2018-02-06T14:59:20.179Z,1009.4